GTI3011 KLAL-KAFW
Flight info
| Callsign | GTI3011 |
|---|---|
| Flight time | 2h 38m |
| Altitude | 32000 |
| Route | DORMR PSTOL FROOT ROZZI Y280 LEV/N0464F340 LFK J50 CRIED REEKO3 |
| Aircraft | B738/M-SDE2E3FGHIRWXY/LB1 |
Departure
| Time | 2026-05-05 12:02 |
|---|---|
| Airport | Lakeland Linder International Airport (KLAL) |
Arrival
| Time | 2026-05-05 14:40 |
|---|---|
| Airport | Perot Field/Fort Worth Alliance Airport (KAFW) |
| Time | Latitude | Longitude | Altitude | Speed | Heading |
|---|---|---|---|---|---|
| 2026-05-05 11:33 | 27.98588 | -82.02157 | 142 ft | 0 kts | 352° |
| 2026-05-05 11:51 | 27.98579 | -82.02156 | 142 ft | 4 kts | 17° |
| 2026-05-05 11:52 | 27.98574 | -82.02166 | 142 ft | 4 kts | 93° |
| 2026-05-05 11:52 | 27.98574 | -82.02194 | 142 ft | 2 kts | 79° |
| 2026-05-05 11:52 | 27.98573 | -82.02199 | 142 ft | 0 kts | 79° |
| 2026-05-05 11:55 | 27.98578 | -82.02164 | 142 ft | 8 kts | 79° |
| 2026-05-05 11:56 | 27.98586 | -82.02101 | 142 ft | 8 kts | 96° |
| 2026-05-05 11:56 | 27.98556 | -82.02038 | 142 ft | 10 kts | 119° |
| 2026-05-05 11:56 | 27.98568 | -82.01969 | 144 ft | 9 kts | 49° |
| 2026-05-05 11:56 | 27.98610 | -82.01918 | 146 ft | 9 kts | 46° |
| 2026-05-05 11:57 | 27.98665 | -82.01858 | 146 ft | 14 kts | 44° |
| 2026-05-05 11:57 | 27.98735 | -82.01782 | 147 ft | 14 kts | 44° |
| 2026-05-05 11:57 | 27.98801 | -82.01709 | 149 ft | 13 kts | 44° |
| 2026-05-05 11:57 | 27.98864 | -82.01639 | 148 ft | 13 kts | 44° |
| 2026-05-05 11:58 | 27.98927 | -82.01569 | 146 ft | 12 kts | 45° |
| 2026-05-05 11:58 | 27.98986 | -82.01502 | 146 ft | 12 kts | 41° |
| 2026-05-05 11:58 | 27.99040 | -82.01540 | 145 ft | 12 kts | 269° |
| 2026-05-05 11:58 | 27.99036 | -82.01640 | 145 ft | 15 kts | 272° |
| 2026-05-05 11:59 | 27.99035 | -82.01765 | 146 ft | 16 kts | 268° |
| 2026-05-05 11:59 | 27.99031 | -82.01889 | 146 ft | 15 kts | 269° |
| 2026-05-05 11:59 | 27.99036 | -82.02024 | 145 ft | 20 kts | 273° |
| 2026-05-05 11:59 | 27.99032 | -82.02184 | 145 ft | 22 kts | 269° |
| 2026-05-05 12:00 | 27.99034 | -82.02358 | 146 ft | 22 kts | 271° |
| 2026-05-05 12:00 | 27.99035 | -82.02534 | 144 ft | 23 kts | 270° |
| 2026-05-05 12:00 | 27.99036 | -82.02712 | 144 ft | 22 kts | 271° |
| 2026-05-05 12:00 | 27.99033 | -82.02885 | 143 ft | 22 kts | 270° |
| 2026-05-05 12:01 | 27.99034 | -82.03053 | 141 ft | 21 kts | 269° |
| 2026-05-05 12:01 | 27.99033 | -82.03216 | 140 ft | 20 kts | 270° |
| 2026-05-05 12:01 | 27.99009 | -82.03343 | 141 ft | 10 kts | 209° |
| 2026-05-05 12:01 | 27.98941 | -82.03342 | 142 ft | 12 kts | 143° |
| 2026-05-05 12:02 | 27.98923 | -82.03023 | 140 ft | 80 kts | 89° |
| 2026-05-05 12:02 | 27.98931 | -82.02137 | 144 ft | 143 kts | 90° |
| 2026-05-05 12:02 | 27.98933 | -82.01290 | 261 ft | 168 kts | 89° |
| 2026-05-05 12:02 | 27.98940 | -81.99930 | 955 ft | 177 kts | 87° |
| 2026-05-05 12:03 | 27.99058 | -81.98566 | 1671 ft | 174 kts | 82° |
| 2026-05-05 12:03 | 27.99211 | -81.97131 | 2008 ft | 198 kts | 83° |
| 2026-05-05 12:03 | 27.99642 | -81.95561 | 2013 ft | 227 kts | 54° |
| 2026-05-05 12:03 | 28.00953 | -81.94544 | 2006 ft | 239 kts | 14° |
| 2026-05-05 12:04 | 28.02660 | -81.94644 | 2020 ft | 257 kts | 346° |
| 2026-05-05 12:04 | 28.04354 | -81.95315 | 2525 ft | 259 kts | 341° |
| 2026-05-05 12:04 | 28.06071 | -81.96030 | 3171 ft | 266 kts | 343° |
| 2026-05-05 12:04 | 28.07810 | -81.96706 | 3877 ft | 263 kts | 344° |
| 2026-05-05 12:05 | 28.09559 | -81.97352 | 4653 ft | 266 kts | 344° |
| 2026-05-05 12:05 | 28.11338 | -81.97993 | 5394 ft | 270 kts | 343° |
| 2026-05-05 12:05 | 28.13087 | -81.98794 | 6098 ft | 275 kts | 326° |
| 2026-05-05 12:05 | 28.14375 | -82.00390 | 6733 ft | 279 kts | 297° |
| 2026-05-05 12:06 | 28.14858 | -82.02496 | 7361 ft | 279 kts | 269° |
| 2026-05-05 12:06 | 28.14494 | -82.04643 | 8005 ft | 279 kts | 248° |
| 2026-05-05 12:06 | 28.13740 | -82.06672 | 8644 ft | 280 kts | 245° |
| 2026-05-05 12:06 | 28.12921 | -82.08675 | 9269 ft | 281 kts | 244° |
| 2026-05-05 12:07 | 28.12090 | -82.10675 | 9896 ft | 281 kts | 244° |
| 2026-05-05 12:07 | 28.11257 | -82.12680 | 10528 ft | 281 kts | 245° |
| 2026-05-05 12:07 | 28.10420 | -82.14711 | 11070 ft | 292 kts | 245° |
| 2026-05-05 12:07 | 28.09545 | -82.16848 | 11525 ft | 305 kts | 246° |
| 2026-05-05 12:08 | 28.08640 | -82.19069 | 12054 ft | 316 kts | 246° |
| 2026-05-05 12:08 | 28.07709 | -82.21362 | 12568 ft | 325 kts | 246° |
| 2026-05-05 12:08 | 28.06752 | -82.23724 | 13077 ft | 334 kts | 246° |
| 2026-05-05 12:08 | 28.05774 | -82.26142 | 13591 ft | 342 kts | 247° |
| 2026-05-05 12:09 | 28.04776 | -82.28614 | 14099 ft | 348 kts | 247° |
| 2026-05-05 12:09 | 28.03767 | -82.31111 | 14593 ft | 348 kts | 247° |
| 2026-05-05 12:09 | 28.02771 | -82.33574 | 15088 ft | 348 kts | 248° |
| 2026-05-05 12:09 | 28.01762 | -82.36068 | 15584 ft | 349 kts | 248° |
| 2026-05-05 12:10 | 28.00752 | -82.38563 | 16080 ft | 349 kts | 248° |
| 2026-05-05 12:10 | 27.99740 | -82.41063 | 16577 ft | 349 kts | 248° |
| 2026-05-05 12:10 | 27.98726 | -82.43564 | 17080 ft | 350 kts | 248° |
| 2026-05-05 12:10 | 27.97707 | -82.46080 | 17586 ft | 354 kts | 249° |
| 2026-05-05 12:11 | 27.96673 | -82.48630 | 18094 ft | 358 kts | 249° |
| 2026-05-05 12:11 | 27.95627 | -82.51209 | 18610 ft | 363 kts | 249° |
| 2026-05-05 12:11 | 27.94568 | -82.53816 | 19098 ft | 366 kts | 249° |
| 2026-05-05 12:11 | 27.93501 | -82.56441 | 19599 ft | 368 kts | 249° |
| 2026-05-05 12:12 | 27.92431 | -82.59074 | 20102 ft | 369 kts | 250° |
| 2026-05-05 12:12 | 27.91355 | -82.61716 | 20603 ft | 370 kts | 250° |
| 2026-05-05 12:12 | 27.90276 | -82.64361 | 21102 ft | 371 kts | 250° |
| 2026-05-05 12:12 | 27.89191 | -82.67011 | 21602 ft | 372 kts | 250° |
| 2026-05-05 12:13 | 27.88104 | -82.69665 | 22101 ft | 373 kts | 250° |
| 2026-05-05 12:13 | 27.87015 | -82.72328 | 22596 ft | 374 kts | 251° |
| 2026-05-05 12:13 | 27.85924 | -82.74999 | 23100 ft | 375 kts | 251° |
| 2026-05-05 12:13 | 27.84831 | -82.77676 | 23499 ft | 378 kts | 251° |
| 2026-05-05 12:14 | 27.83716 | -82.80411 | 23648 ft | 387 kts | 251° |
| 2026-05-05 12:14 | 27.82579 | -82.83198 | 23918 ft | 393 kts | 251° |
| 2026-05-05 12:14 | 27.81447 | -82.85963 | 24341 ft | 393 kts | 251° |
| 2026-05-05 12:14 | 27.80295 | -82.88772 | 24765 ft | 394 kts | 251° |
| 2026-05-05 12:15 | 27.79139 | -82.91590 | 25114 ft | 397 kts | 251° |
| 2026-05-05 12:15 | 27.77975 | -82.94427 | 25453 ft | 400 kts | 251° |
| 2026-05-05 12:15 | 27.76805 | -82.97281 | 25806 ft | 402 kts | 251° |
| 2026-05-05 12:15 | 27.75626 | -83.00153 | 26125 ft | 404 kts | 252° |
| 2026-05-05 12:16 | 27.74441 | -83.03037 | 26478 ft | 405 kts | 252° |
| 2026-05-05 12:16 | 27.73253 | -83.05924 | 26947 ft | 403 kts | 252° |
| 2026-05-05 12:16 | 27.72073 | -83.08788 | 27437 ft | 401 kts | 252° |
| 2026-05-05 12:16 | 27.70899 | -83.11640 | 27869 ft | 401 kts | 252° |
| 2026-05-05 12:17 | 27.70055 | -83.13689 | 28168 ft | 400 kts | 252° |
| 2026-05-05 12:17 | 27.68883 | -83.16535 | 28579 ft | 400 kts | 252° |
| 2026-05-05 12:17 | 27.67712 | -83.19375 | 29008 ft | 399 kts | 252° |
| 2026-05-05 12:17 | 27.66543 | -83.22206 | 29456 ft | 398 kts | 253° |
| 2026-05-05 12:18 | 27.65388 | -83.25033 | 29885 ft | 394 kts | 255° |
| 2026-05-05 12:18 | 27.64509 | -83.27923 | 30295 ft | 387 kts | 262° |
| 2026-05-05 12:18 | 27.64008 | -83.30879 | 30678 ft | 380 kts | 270° |
| 2026-05-05 12:18 | 27.63738 | -83.33834 | 31129 ft | 377 kts | 271° |
| 2026-05-05 12:19 | 27.63479 | -83.36758 | 31610 ft | 373 kts | 271° |
| 2026-05-05 12:19 | 27.63220 | -83.39660 | 32004 ft | 372 kts | 271° |
| 2026-05-05 12:19 | 27.62695 | -83.45444 | 32059 ft | 371 kts | 271° |
| 2026-05-05 12:20 | 27.62151 | -83.51227 | 32070 ft | 370 kts | 271° |
| 2026-05-05 12:20 | 27.61604 | -83.56992 | 32069 ft | 370 kts | 271° |
| 2026-05-05 12:21 | 27.61053 | -83.62757 | 32063 ft | 370 kts | 271° |
| 2026-05-05 12:21 | 27.60501 | -83.68511 | 32065 ft | 369 kts | 271° |
| 2026-05-05 12:22 | 27.60040 | -83.73295 | 32065 ft | 369 kts | 271° |
| 2026-05-05 12:22 | 27.59483 | -83.79053 | 32072 ft | 372 kts | 271° |
| 2026-05-05 12:23 | 27.58915 | -83.84957 | 32075 ft | 385 kts | 271° |
| 2026-05-05 12:23 | 27.58321 | -83.91057 | 32075 ft | 396 kts | 271° |
| 2026-05-05 12:24 | 27.57710 | -83.97275 | 32073 ft | 406 kts | 271° |
| 2026-05-05 12:24 | 27.57079 | -84.03638 | 32058 ft | 410 kts | 271° |
| 2026-05-05 12:25 | 27.56445 | -84.10024 | 32064 ft | 411 kts | 271° |
| 2026-05-05 12:25 | 27.56006 | -84.16414 | 32063 ft | 405 kts | 277° |
| 2026-05-05 12:26 | 27.56745 | -84.22611 | 32069 ft | 397 kts | 285° |
| 2026-05-05 12:26 | 27.57772 | -84.28726 | 32064 ft | 396 kts | 285° |
| 2026-05-05 12:27 | 27.58771 | -84.34791 | 32063 ft | 395 kts | 285° |
| 2026-05-05 12:27 | 27.59760 | -84.40879 | 32064 ft | 394 kts | 285° |
| 2026-05-05 12:28 | 27.60742 | -84.46961 | 32064 ft | 394 kts | 285° |
| 2026-05-05 12:28 | 27.61718 | -84.53031 | 32065 ft | 393 kts | 285° |
| 2026-05-05 12:29 | 27.62691 | -84.59100 | 32064 ft | 393 kts | 285° |
| 2026-05-05 12:29 | 27.63661 | -84.65165 | 32066 ft | 393 kts | 285° |
| 2026-05-05 12:30 | 27.64629 | -84.71242 | 32065 ft | 394 kts | 285° |
| 2026-05-05 12:30 | 27.65599 | -84.77337 | 32064 ft | 395 kts | 285° |
| 2026-05-05 12:31 | 27.66568 | -84.83445 | 32066 ft | 396 kts | 285° |
| 2026-05-05 12:31 | 27.67535 | -84.89564 | 32066 ft | 397 kts | 285° |
| 2026-05-05 12:32 | 27.68502 | -84.95701 | 32064 ft | 398 kts | 285° |
| 2026-05-05 12:32 | 27.69468 | -85.01847 | 32063 ft | 398 kts | 284° |
| 2026-05-05 12:33 | 27.70425 | -85.07962 | 32063 ft | 399 kts | 284° |
| 2026-05-05 12:33 | 27.71388 | -85.14124 | 32055 ft | 399 kts | 284° |
| 2026-05-05 12:34 | 27.72347 | -85.20286 | 32057 ft | 399 kts | 284° |
| 2026-05-05 12:34 | 27.73305 | -85.26454 | 32056 ft | 399 kts | 284° |
| 2026-05-05 12:35 | 27.74637 | -85.32496 | 32053 ft | 393 kts | 295° |
| 2026-05-05 12:35 | 27.76730 | -85.38190 | 32052 ft | 393 kts | 295° |
| 2026-05-05 12:36 | 27.78804 | -85.43859 | 32058 ft | 393 kts | 295° |
| 2026-05-05 12:36 | 27.80877 | -85.49569 | 32054 ft | 393 kts | 295° |
| 2026-05-05 12:37 | 27.82940 | -85.55282 | 32056 ft | 392 kts | 295° |
| 2026-05-05 12:37 | 27.84998 | -85.60994 | 32058 ft | 392 kts | 295° |
| 2026-05-05 12:38 | 27.87048 | -85.66692 | 32066 ft | 391 kts | 295° |
| 2026-05-05 12:38 | 27.89095 | -85.72392 | 32065 ft | 391 kts | 295° |
| 2026-05-05 12:39 | 27.91135 | -85.78080 | 32059 ft | 390 kts | 295° |
| 2026-05-05 12:39 | 27.93172 | -85.83767 | 32054 ft | 390 kts | 295° |
| 2026-05-05 12:40 | 27.95205 | -85.89453 | 32057 ft | 390 kts | 295° |
| 2026-05-05 12:40 | 27.97234 | -85.95138 | 32054 ft | 389 kts | 294° |
| 2026-05-05 12:41 | 27.99260 | -86.00817 | 32056 ft | 389 kts | 294° |
| 2026-05-05 12:41 | 28.01281 | -86.06500 | 32058 ft | 389 kts | 294° |
| 2026-05-05 12:42 | 28.03304 | -86.12193 | 32055 ft | 390 kts | 294° |
| 2026-05-05 12:42 | 28.05312 | -86.17854 | 32056 ft | 390 kts | 294° |
| 2026-05-05 12:43 | 28.07334 | -86.23560 | 32055 ft | 391 kts | 294° |
| 2026-05-05 12:43 | 28.09355 | -86.29272 | 32054 ft | 391 kts | 294° |
| 2026-05-05 12:44 | 28.11373 | -86.34989 | 32054 ft | 391 kts | 294° |
| 2026-05-05 12:44 | 28.13391 | -86.40712 | 32055 ft | 391 kts | 294° |
| 2026-05-05 12:45 | 28.15408 | -86.46438 | 32049 ft | 392 kts | 294° |
| 2026-05-05 12:45 | 28.17429 | -86.52183 | 32050 ft | 392 kts | 294° |
| 2026-05-05 12:46 | 28.19444 | -86.57927 | 32046 ft | 392 kts | 294° |
| 2026-05-05 12:46 | 28.21456 | -86.63668 | 32038 ft | 392 kts | 294° |
| 2026-05-05 12:47 | 28.23464 | -86.69409 | 32038 ft | 391 kts | 294° |
| 2026-05-05 12:47 | 28.25469 | -86.75147 | 32035 ft | 391 kts | 294° |
| 2026-05-05 12:48 | 28.27469 | -86.80882 | 32038 ft | 391 kts | 294° |
| 2026-05-05 12:48 | 28.29468 | -86.86622 | 32037 ft | 391 kts | 294° |
| 2026-05-05 12:49 | 28.31462 | -86.92353 | 32037 ft | 390 kts | 294° |
| 2026-05-05 12:49 | 28.33440 | -86.98054 | 32038 ft | 390 kts | 294° |
| 2026-05-05 12:50 | 28.35430 | -87.03794 | 32036 ft | 391 kts | 294° |
| 2026-05-05 12:50 | 28.37420 | -87.09545 | 32038 ft | 391 kts | 294° |
| 2026-05-05 12:51 | 28.39410 | -87.15307 | 32037 ft | 392 kts | 294° |
| 2026-05-05 12:51 | 28.41400 | -87.21072 | 32038 ft | 392 kts | 294° |
| 2026-05-05 12:52 | 28.43387 | -87.26844 | 32037 ft | 393 kts | 294° |
| 2026-05-05 12:52 | 28.45377 | -87.32632 | 32037 ft | 393 kts | 294° |
| 2026-05-05 12:53 | 28.47364 | -87.38420 | 32037 ft | 393 kts | 294° |
| 2026-05-05 12:53 | 28.49352 | -87.44216 | 32036 ft | 394 kts | 294° |
| 2026-05-05 12:54 | 28.52320 | -87.52895 | 32038 ft | 394 kts | 293° |
| 2026-05-05 12:55 | 28.54302 | -87.58708 | 32036 ft | 394 kts | 293° |
| 2026-05-05 12:55 | 28.56287 | -87.64527 | 32037 ft | 395 kts | 293° |
| 2026-05-05 12:56 | 28.58270 | -87.70352 | 32037 ft | 395 kts | 293° |
| 2026-05-05 12:56 | 28.60247 | -87.76173 | 32037 ft | 395 kts | 293° |
| 2026-05-05 12:57 | 28.62224 | -87.82004 | 32037 ft | 394 kts | 293° |
| 2026-05-05 12:57 | 28.64197 | -87.87833 | 32037 ft | 394 kts | 293° |
| 2026-05-05 12:58 | 28.66168 | -87.93666 | 32037 ft | 394 kts | 293° |
| 2026-05-05 12:58 | 28.68136 | -87.99498 | 32038 ft | 394 kts | 293° |
| 2026-05-05 12:59 | 28.70090 | -88.05293 | 32035 ft | 395 kts | 293° |
| 2026-05-05 12:59 | 28.71962 | -88.11181 | 32037 ft | 395 kts | 290° |
| 2026-05-05 13:00 | 28.74444 | -88.20145 | 32037 ft | 396 kts | 290° |
| 2026-05-05 13:01 | 28.77756 | -88.32101 | 32039 ft | 395 kts | 290° |
| 2026-05-05 13:01 | 28.79418 | -88.38077 | 32036 ft | 395 kts | 290° |
| 2026-05-05 13:02 | 28.81065 | -88.44012 | 32040 ft | 395 kts | 290° |
| 2026-05-05 13:02 | 28.82721 | -88.49986 | 32037 ft | 395 kts | 290° |
| 2026-05-05 13:03 | 28.84374 | -88.55961 | 32040 ft | 395 kts | 290° |
| 2026-05-05 13:03 | 28.86022 | -88.61928 | 32036 ft | 394 kts | 290° |
| 2026-05-05 13:04 | 28.87668 | -88.67899 | 32036 ft | 394 kts | 290° |
| 2026-05-05 13:04 | 28.89151 | -88.73924 | 32041 ft | 395 kts | 287° |
| 2026-05-05 13:05 | 28.90438 | -88.80022 | 32034 ft | 395 kts | 286° |
| 2026-05-05 13:05 | 28.91713 | -88.86123 | 32035 ft | 395 kts | 286° |
| 2026-05-05 13:06 | 28.92999 | -88.92226 | 32037 ft | 396 kts | 287° |
| 2026-05-05 13:06 | 28.94291 | -88.98329 | 32034 ft | 396 kts | 287° |
| 2026-05-05 13:07 | 28.95583 | -89.04442 | 32027 ft | 396 kts | 287° |
| 2026-05-05 13:07 | 28.96872 | -89.10553 | 32028 ft | 396 kts | 287° |
| 2026-05-05 13:08 | 28.97940 | -89.15629 | 32028 ft | 395 kts | 286° |
| 2026-05-05 13:08 | 28.99224 | -89.21741 | 32030 ft | 395 kts | 286° |
| 2026-05-05 13:09 | 29.00504 | -89.27853 | 32017 ft | 396 kts | 286° |
| 2026-05-05 13:09 | 29.01785 | -89.33978 | 32009 ft | 396 kts | 286° |
| 2026-05-05 13:10 | 29.03063 | -89.40105 | 32008 ft | 396 kts | 286° |
| 2026-05-05 13:10 | 29.04335 | -89.46219 | 32010 ft | 395 kts | 286° |
| 2026-05-05 13:11 | 29.05596 | -89.52295 | 32007 ft | 395 kts | 286° |
| 2026-05-05 13:11 | 29.06862 | -89.58413 | 32010 ft | 395 kts | 286° |
| 2026-05-05 13:12 | 29.08126 | -89.64529 | 32009 ft | 395 kts | 286° |
| 2026-05-05 13:12 | 29.09384 | -89.70639 | 32000 ft | 395 kts | 286° |
| 2026-05-05 13:13 | 29.10641 | -89.76755 | 32011 ft | 394 kts | 286° |
| 2026-05-05 13:13 | 29.11893 | -89.82863 | 32008 ft | 394 kts | 286° |
| 2026-05-05 13:14 | 29.13134 | -89.88934 | 32002 ft | 394 kts | 286° |
| 2026-05-05 13:14 | 29.14381 | -89.95047 | 32001 ft | 394 kts | 286° |
| 2026-05-05 13:15 | 29.15625 | -90.01155 | 32000 ft | 394 kts | 286° |
| 2026-05-05 13:15 | 29.16866 | -90.07268 | 31999 ft | 394 kts | 286° |
| 2026-05-05 13:16 | 29.18688 | -90.13138 | 31999 ft | 391 kts | 298° |
| 2026-05-05 13:16 | 29.21223 | -90.18637 | 31996 ft | 391 kts | 298° |
| 2026-05-05 13:17 | 29.23740 | -90.24104 | 32002 ft | 390 kts | 298° |
| 2026-05-05 13:17 | 29.26262 | -90.29620 | 31999 ft | 391 kts | 298° |
| 2026-05-05 13:18 | 29.28771 | -90.35134 | 32001 ft | 390 kts | 298° |
| 2026-05-05 13:18 | 29.31278 | -90.40655 | 32000 ft | 390 kts | 298° |
| 2026-05-05 13:19 | 29.33779 | -90.46174 | 32000 ft | 390 kts | 298° |
| 2026-05-05 13:19 | 29.36280 | -90.51698 | 31999 ft | 390 kts | 298° |
| 2026-05-05 13:20 | 29.38771 | -90.57211 | 32000 ft | 389 kts | 297° |
| 2026-05-05 13:20 | 29.41248 | -90.62700 | 32002 ft | 390 kts | 297° |
| 2026-05-05 13:21 | 29.43741 | -90.68230 | 32000 ft | 390 kts | 297° |
| 2026-05-05 13:21 | 29.46230 | -90.73758 | 32000 ft | 390 kts | 297° |
| 2026-05-05 13:22 | 29.48718 | -90.79294 | 32000 ft | 390 kts | 297° |
| 2026-05-05 13:22 | 29.51204 | -90.84833 | 31999 ft | 390 kts | 297° |
| 2026-05-05 13:23 | 29.53687 | -90.90377 | 31999 ft | 390 kts | 297° |
| 2026-05-05 13:23 | 29.56169 | -90.95922 | 32000 ft | 390 kts | 297° |
| 2026-05-05 13:24 | 29.58649 | -91.01468 | 32002 ft | 390 kts | 297° |
| 2026-05-05 13:24 | 29.61132 | -91.07031 | 31990 ft | 391 kts | 297° |
| 2026-05-05 13:25 | 29.63611 | -91.12594 | 31990 ft | 391 kts | 297° |
| 2026-05-05 13:25 | 29.66086 | -91.18156 | 31991 ft | 391 kts | 297° |
| 2026-05-05 13:26 | 29.68542 | -91.23687 | 31991 ft | 391 kts | 297° |
| 2026-05-05 13:26 | 29.71028 | -91.29289 | 31990 ft | 390 kts | 297° |
| 2026-05-05 13:27 | 29.73477 | -91.34816 | 31996 ft | 390 kts | 297° |
| 2026-05-05 13:27 | 29.75940 | -91.40382 | 31993 ft | 390 kts | 297° |
| 2026-05-05 13:28 | 29.78399 | -91.45946 | 31989 ft | 390 kts | 297° |
| 2026-05-05 13:28 | 29.80852 | -91.51505 | 31992 ft | 389 kts | 297° |
| 2026-05-05 13:29 | 29.83303 | -91.57069 | 31987 ft | 389 kts | 297° |
| 2026-05-05 13:29 | 29.85748 | -91.62627 | 31983 ft | 389 kts | 297° |
| 2026-05-05 13:30 | 29.88189 | -91.68178 | 31982 ft | 388 kts | 296° |
| 2026-05-05 13:30 | 29.90622 | -91.73726 | 31981 ft | 388 kts | 296° |
| 2026-05-05 13:31 | 29.93036 | -91.79234 | 31975 ft | 388 kts | 296° |
| 2026-05-05 13:31 | 29.95462 | -91.84783 | 31973 ft | 387 kts | 296° |
| 2026-05-05 13:32 | 29.97885 | -91.90334 | 31972 ft | 387 kts | 296° |
| 2026-05-05 13:32 | 30.00307 | -91.95889 | 31972 ft | 387 kts | 296° |
| 2026-05-05 13:33 | 30.02726 | -92.01444 | 31967 ft | 387 kts | 296° |
| 2026-05-05 13:33 | 30.05147 | -92.07008 | 31962 ft | 388 kts | 296° |
| 2026-05-05 13:34 | 30.07566 | -92.12583 | 31957 ft | 388 kts | 296° |
| 2026-05-05 13:34 | 30.09985 | -92.18159 | 31952 ft | 388 kts | 296° |
| 2026-05-05 13:35 | 30.12399 | -92.23735 | 31954 ft | 388 kts | 296° |
| 2026-05-05 13:35 | 30.14806 | -92.29304 | 31956 ft | 387 kts | 296° |
| 2026-05-05 13:36 | 30.17213 | -92.34879 | 31953 ft | 387 kts | 296° |
| 2026-05-05 13:36 | 30.19599 | -92.40413 | 31954 ft | 387 kts | 296° |
| 2026-05-05 13:37 | 30.22000 | -92.45991 | 31955 ft | 387 kts | 296° |
| 2026-05-05 13:37 | 30.23603 | -92.49720 | 31952 ft | 387 kts | 296° |
| 2026-05-05 13:38 | 30.26055 | -92.55431 | 31955 ft | 387 kts | 296° |
| 2026-05-05 13:38 | 30.28445 | -92.61005 | 31954 ft | 387 kts | 296° |
| 2026-05-05 13:39 | 30.30831 | -92.66578 | 31956 ft | 386 kts | 296° |
| 2026-05-05 13:39 | 30.33197 | -92.72115 | 31954 ft | 386 kts | 296° |
| 2026-05-05 13:40 | 30.35570 | -92.77676 | 31953 ft | 385 kts | 296° |
| 2026-05-05 13:40 | 30.37945 | -92.83246 | 31944 ft | 385 kts | 295° |
| 2026-05-05 13:41 | 30.40314 | -92.88811 | 31947 ft | 385 kts | 295° |
| 2026-05-05 13:41 | 30.42681 | -92.94382 | 31941 ft | 385 kts | 295° |
| 2026-05-05 13:42 | 30.45042 | -92.99942 | 31945 ft | 385 kts | 295° |
| 2026-05-05 13:42 | 30.47402 | -93.05514 | 31940 ft | 385 kts | 295° |
| 2026-05-05 13:43 | 30.49758 | -93.11087 | 31938 ft | 385 kts | 295° |
| 2026-05-05 13:43 | 30.52097 | -93.16621 | 31934 ft | 384 kts | 295° |
| 2026-05-05 13:44 | 30.54448 | -93.22196 | 31924 ft | 385 kts | 295° |
| 2026-05-05 13:44 | 30.56797 | -93.27771 | 31928 ft | 385 kts | 295° |
| 2026-05-05 13:45 | 30.59148 | -93.33365 | 31928 ft | 385 kts | 295° |
| 2026-05-05 13:45 | 30.61496 | -93.38954 | 31925 ft | 385 kts | 295° |
| 2026-05-05 13:46 | 30.63839 | -93.44542 | 31922 ft | 385 kts | 295° |
| 2026-05-05 13:46 | 30.66183 | -93.50142 | 31928 ft | 385 kts | 295° |
| 2026-05-05 13:47 | 30.68157 | -93.54864 | 31922 ft | 385 kts | 295° |
| 2026-05-05 13:47 | 30.70482 | -93.60434 | 31927 ft | 384 kts | 295° |
| 2026-05-05 13:48 | 30.72812 | -93.66024 | 31920 ft | 384 kts | 295° |
| 2026-05-05 13:48 | 30.75136 | -93.71609 | 31919 ft | 384 kts | 295° |
| 2026-05-05 13:49 | 30.77458 | -93.77196 | 31920 ft | 383 kts | 295° |
| 2026-05-05 13:49 | 30.79773 | -93.82776 | 31911 ft | 383 kts | 295° |
| 2026-05-05 13:50 | 30.82073 | -93.88325 | 31911 ft | 383 kts | 295° |
| 2026-05-05 13:50 | 30.84388 | -93.93919 | 31903 ft | 384 kts | 295° |
| 2026-05-05 13:51 | 30.86699 | -93.99513 | 31897 ft | 384 kts | 295° |
| 2026-05-05 13:51 | 30.89011 | -94.05116 | 31896 ft | 384 kts | 294° |
| 2026-05-05 13:52 | 30.91318 | -94.10720 | 31896 ft | 384 kts | 294° |
| 2026-05-05 13:52 | 30.93623 | -94.16326 | 31897 ft | 383 kts | 294° |
| 2026-05-05 13:53 | 30.95922 | -94.21926 | 31894 ft | 382 kts | 294° |
| 2026-05-05 13:53 | 30.98213 | -94.27515 | 31897 ft | 382 kts | 294° |
| 2026-05-05 13:54 | 31.00499 | -94.33099 | 31899 ft | 382 kts | 294° |
| 2026-05-05 13:54 | 31.02782 | -94.38687 | 31899 ft | 381 kts | 294° |
| 2026-05-05 13:55 | 31.05065 | -94.44281 | 31897 ft | 382 kts | 294° |
| 2026-05-05 13:55 | 31.07341 | -94.49868 | 31897 ft | 381 kts | 294° |
| 2026-05-05 13:56 | 31.09611 | -94.55450 | 31894 ft | 381 kts | 294° |
| 2026-05-05 13:56 | 31.11868 | -94.61008 | 31887 ft | 381 kts | 294° |
| 2026-05-05 13:57 | 31.14139 | -94.66606 | 31887 ft | 381 kts | 294° |
| 2026-05-05 13:57 | 31.15966 | -94.71272 | 31878 ft | 380 kts | 290° |
| 2026-05-05 13:58 | 31.16776 | -94.74220 | 31490 ft | 383 kts | 284° |
| 2026-05-05 13:58 | 31.17392 | -94.77243 | 31131 ft | 382 kts | 284° |
| 2026-05-05 13:58 | 31.18002 | -94.80261 | 30759 ft | 383 kts | 284° |
| 2026-05-05 13:58 | 31.18617 | -94.83295 | 30399 ft | 385 kts | 284° |
| 2026-05-05 13:59 | 31.19867 | -94.89418 | 29937 ft | 389 kts | 284° |
| 2026-05-05 13:59 | 31.20499 | -94.92499 | 29893 ft | 391 kts | 284° |
| 2026-05-05 14:00 | 31.22388 | -95.01709 | 29887 ft | 388 kts | 284° |
| 2026-05-05 14:00 | 31.23645 | -95.07852 | 29880 ft | 389 kts | 284° |
| 2026-05-05 14:01 | 31.24900 | -95.14004 | 29878 ft | 389 kts | 284° |
| 2026-05-05 14:01 | 31.26155 | -95.20170 | 29880 ft | 390 kts | 284° |
| 2026-05-05 14:02 | 31.27407 | -95.26339 | 29874 ft | 390 kts | 284° |
| 2026-05-05 14:02 | 31.28656 | -95.32508 | 29870 ft | 390 kts | 284° |
| 2026-05-05 14:03 | 31.29903 | -95.38680 | 29868 ft | 389 kts | 284° |
| 2026-05-05 14:03 | 31.31134 | -95.44796 | 29870 ft | 388 kts | 284° |
| 2026-05-05 14:04 | 31.32368 | -95.50939 | 29866 ft | 388 kts | 283° |
| 2026-05-05 14:04 | 31.33598 | -95.57074 | 29870 ft | 387 kts | 283° |
| 2026-05-05 14:05 | 31.35153 | -95.63072 | 29822 ft | 388 kts | 294° |
| 2026-05-05 14:05 | 31.36489 | -95.65835 | 29514 ft | 392 kts | 300° |
| 2026-05-05 14:05 | 31.38065 | -95.68434 | 29232 ft | 392 kts | 305° |
| 2026-05-05 14:06 | 31.39986 | -95.70716 | 28929 ft | 396 kts | 314° |
| 2026-05-05 14:06 | 31.42089 | -95.72796 | 28586 ft | 396 kts | 314° |
| 2026-05-05 14:06 | 31.44208 | -95.74850 | 28238 ft | 396 kts | 314° |
| 2026-05-05 14:06 | 31.46332 | -95.76901 | 27889 ft | 396 kts | 314° |
| 2026-05-05 14:07 | 31.48453 | -95.78956 | 27538 ft | 395 kts | 314° |
| 2026-05-05 14:07 | 31.50561 | -95.81011 | 27190 ft | 394 kts | 314° |
| 2026-05-05 14:07 | 31.52664 | -95.83069 | 26839 ft | 393 kts | 314° |
| 2026-05-05 14:07 | 31.54757 | -95.85124 | 26487 ft | 392 kts | 314° |
| 2026-05-05 14:08 | 31.56840 | -95.87172 | 26140 ft | 390 kts | 314° |
| 2026-05-05 14:08 | 31.58919 | -95.89220 | 25792 ft | 389 kts | 314° |
| 2026-05-05 14:08 | 31.60989 | -95.91262 | 25440 ft | 388 kts | 314° |
| 2026-05-05 14:08 | 31.63052 | -95.93298 | 25087 ft | 387 kts | 314° |
| 2026-05-05 14:09 | 31.65108 | -95.95329 | 24741 ft | 385 kts | 314° |
| 2026-05-05 14:09 | 31.67154 | -95.97351 | 24387 ft | 384 kts | 313° |
| 2026-05-05 14:09 | 31.69197 | -95.99373 | 24038 ft | 383 kts | 314° |
| 2026-05-05 14:09 | 31.71207 | -96.01363 | 23681 ft | 383 kts | 313° |
| 2026-05-05 14:10 | 31.73240 | -96.03377 | 23305 ft | 382 kts | 313° |
| 2026-05-05 14:10 | 31.75271 | -96.05390 | 22931 ft | 381 kts | 314° |
| 2026-05-05 14:10 | 31.77293 | -96.07394 | 22557 ft | 379 kts | 314° |
| 2026-05-05 14:10 | 31.79302 | -96.09387 | 22180 ft | 377 kts | 314° |
| 2026-05-05 14:11 | 31.81298 | -96.11367 | 21806 ft | 374 kts | 314° |
| 2026-05-05 14:11 | 31.83278 | -96.13333 | 21431 ft | 370 kts | 314° |
| 2026-05-05 14:11 | 31.85238 | -96.15280 | 21057 ft | 368 kts | 314° |
| 2026-05-05 14:11 | 31.87183 | -96.17214 | 20678 ft | 365 kts | 314° |
| 2026-05-05 14:12 | 31.89114 | -96.19134 | 20334 ft | 362 kts | 314° |
| 2026-05-05 14:12 | 31.91027 | -96.21037 | 20007 ft | 358 kts | 314° |
| 2026-05-05 14:12 | 31.92925 | -96.22928 | 19686 ft | 356 kts | 315° |
| 2026-05-05 14:12 | 31.94803 | -96.24800 | 19434 ft | 352 kts | 315° |
| 2026-05-05 14:13 | 31.96647 | -96.26638 | 19173 ft | 344 kts | 315° |
| 2026-05-05 14:13 | 31.98450 | -96.28435 | 18915 ft | 335 kts | 315° |
| 2026-05-05 14:13 | 32.00206 | -96.30187 | 18661 ft | 327 kts | 315° |
| 2026-05-05 14:13 | 32.01925 | -96.31904 | 18404 ft | 321 kts | 315° |
| 2026-05-05 14:14 | 32.03626 | -96.33605 | 18157 ft | 320 kts | 315° |
| 2026-05-05 14:14 | 32.05297 | -96.35278 | 17915 ft | 319 kts | 315° |
| 2026-05-05 14:14 | 32.06984 | -96.36968 | 17666 ft | 318 kts | 315° |
| 2026-05-05 14:14 | 32.08671 | -96.38659 | 17413 ft | 318 kts | 315° |
| 2026-05-05 14:15 | 32.10355 | -96.40345 | 17166 ft | 317 kts | 315° |
| 2026-05-05 14:15 | 32.12036 | -96.42030 | 16928 ft | 317 kts | 315° |
| 2026-05-05 14:15 | 32.13715 | -96.43712 | 16677 ft | 317 kts | 315° |
| 2026-05-05 14:15 | 32.15393 | -96.45397 | 16413 ft | 317 kts | 315° |
| 2026-05-05 14:16 | 32.17070 | -96.47078 | 16165 ft | 316 kts | 315° |
| 2026-05-05 14:16 | 32.18756 | -96.48759 | 15916 ft | 317 kts | 315° |
| 2026-05-05 14:16 | 32.20453 | -96.50433 | 15667 ft | 318 kts | 315° |
| 2026-05-05 14:16 | 32.22152 | -96.52105 | 15419 ft | 318 kts | 315° |
| 2026-05-05 14:17 | 32.23855 | -96.53783 | 15166 ft | 319 kts | 315° |
| 2026-05-05 14:17 | 32.25556 | -96.55463 | 14921 ft | 319 kts | 315° |
| 2026-05-05 14:17 | 32.27248 | -96.57158 | 14668 ft | 318 kts | 312° |
| 2026-05-05 14:17 | 32.28729 | -96.59075 | 14415 ft | 314 kts | 304° |
| 2026-05-05 14:18 | 32.29906 | -96.61229 | 14167 ft | 311 kts | 297° |
| 2026-05-05 14:18 | 32.30973 | -96.63449 | 13917 ft | 311 kts | 297° |
| 2026-05-05 14:18 | 32.32042 | -96.65668 | 13672 ft | 310 kts | 297° |
| 2026-05-05 14:18 | 32.33013 | -96.67938 | 13414 ft | 308 kts | 290° |
| 2026-05-05 14:19 | 32.33673 | -96.70340 | 13169 ft | 306 kts | 284° |
| 2026-05-05 14:19 | 32.34231 | -96.72771 | 12918 ft | 306 kts | 283° |
| 2026-05-05 14:19 | 32.34777 | -96.75201 | 12663 ft | 306 kts | 283° |
| 2026-05-05 14:19 | 32.35325 | -96.77632 | 12417 ft | 306 kts | 283° |
| 2026-05-05 14:20 | 32.35875 | -96.80058 | 12178 ft | 306 kts | 283° |
| 2026-05-05 14:20 | 32.36428 | -96.82483 | 11928 ft | 305 kts | 283° |
| 2026-05-05 14:20 | 32.36979 | -96.84893 | 11667 ft | 301 kts | 283° |
| 2026-05-05 14:20 | 32.37521 | -96.87259 | 11410 ft | 295 kts | 283° |
| 2026-05-05 14:21 | 32.38055 | -96.89578 | 11147 ft | 290 kts | 283° |
| 2026-05-05 14:21 | 32.38583 | -96.91873 | 10898 ft | 289 kts | 283° |
| 2026-05-05 14:21 | 32.39108 | -96.94165 | 10664 ft | 288 kts | 283° |
| 2026-05-05 14:21 | 32.39633 | -96.96466 | 10598 ft | 293 kts | 283° |
| 2026-05-05 14:22 | 32.40282 | -96.98745 | 10558 ft | 292 kts | 292° |
| 2026-05-05 14:22 | 32.41346 | -97.00805 | 10560 ft | 295 kts | 302° |
| 2026-05-05 14:22 | 32.42569 | -97.02767 | 10562 ft | 296 kts | 303° |
| 2026-05-05 14:22 | 32.43814 | -97.04712 | 10556 ft | 295 kts | 303° |
| 2026-05-05 14:23 | 32.45054 | -97.06650 | 10556 ft | 296 kts | 303° |
| 2026-05-05 14:23 | 32.46289 | -97.08563 | 10551 ft | 297 kts | 307° |
| 2026-05-05 14:23 | 32.47849 | -97.10198 | 10554 ft | 300 kts | 318° |
| 2026-05-05 14:23 | 32.49502 | -97.11669 | 10392 ft | 296 kts | 318° |
| 2026-05-05 14:24 | 32.51136 | -97.13105 | 10204 ft | 288 kts | 318° |
| 2026-05-05 14:24 | 32.52718 | -97.14501 | 10068 ft | 280 kts | 318° |
| 2026-05-05 14:24 | 32.54265 | -97.15880 | 9937 ft | 277 kts | 317° |
| 2026-05-05 14:24 | 32.55799 | -97.17257 | 9818 ft | 276 kts | 317° |
| 2026-05-05 14:25 | 32.57324 | -97.18630 | 9692 ft | 275 kts | 317° |
| 2026-05-05 14:25 | 32.58842 | -97.19999 | 9561 ft | 274 kts | 317° |
| 2026-05-05 14:25 | 32.60349 | -97.21358 | 9439 ft | 272 kts | 317° |
| 2026-05-05 14:25 | 32.61915 | -97.22620 | 9305 ft | 274 kts | 325° |
| 2026-05-05 14:26 | 32.63630 | -97.23650 | 9191 ft | 279 kts | 329° |
| 2026-05-05 14:26 | 32.65403 | -97.24632 | 9079 ft | 283 kts | 330° |
| 2026-05-05 14:26 | 32.67189 | -97.25611 | 8932 ft | 282 kts | 329° |
| 2026-05-05 14:26 | 32.68969 | -97.26599 | 8779 ft | 281 kts | 329° |
| 2026-05-05 14:27 | 32.70734 | -97.27591 | 8625 ft | 280 kts | 329° |
| 2026-05-05 14:27 | 32.72490 | -97.28591 | 8467 ft | 280 kts | 329° |
| 2026-05-05 14:27 | 32.74243 | -97.29593 | 8342 ft | 279 kts | 328° |
| 2026-05-05 14:27 | 32.75987 | -97.30596 | 8209 ft | 278 kts | 328° |
| 2026-05-05 14:28 | 32.77721 | -97.31593 | 8039 ft | 275 kts | 328° |
| 2026-05-05 14:28 | 32.79435 | -97.32581 | 7861 ft | 271 kts | 328° |
| 2026-05-05 14:28 | 32.81127 | -97.33559 | 7714 ft | 269 kts | 328° |
| 2026-05-05 14:28 | 32.82802 | -97.34530 | 7584 ft | 268 kts | 328° |
| 2026-05-05 14:29 | 32.84490 | -97.35510 | 7363 ft | 272 kts | 328° |
| 2026-05-05 14:29 | 32.86175 | -97.36465 | 7198 ft | 273 kts | 333° |
| 2026-05-05 14:29 | 32.88048 | -97.37001 | 7044 ft | 279 kts | 345° |
| 2026-05-05 14:29 | 32.89983 | -97.37298 | 6878 ft | 281 kts | 347° |
| 2026-05-05 14:30 | 32.91915 | -97.37556 | 6714 ft | 279 kts | 347° |
| 2026-05-05 14:30 | 32.93849 | -97.37825 | 6556 ft | 278 kts | 346° |
| 2026-05-05 14:30 | 32.95770 | -97.38108 | 6394 ft | 278 kts | 346° |
| 2026-05-05 14:30 | 32.97687 | -97.38404 | 6230 ft | 277 kts | 346° |
| 2026-05-05 14:31 | 32.99597 | -97.38706 | 6066 ft | 276 kts | 346° |
| 2026-05-05 14:31 | 33.01474 | -97.39008 | 5888 ft | 268 kts | 345° |
| 2026-05-05 14:31 | 33.03302 | -97.39307 | 5717 ft | 262 kts | 345° |
| 2026-05-05 14:31 | 33.05096 | -97.39545 | 5547 ft | 258 kts | 349° |
| 2026-05-05 14:32 | 33.06859 | -97.39805 | 5361 ft | 251 kts | 345° |
| 2026-05-05 14:32 | 33.08572 | -97.40124 | 5206 ft | 248 kts | 344° |
| 2026-05-05 14:32 | 33.10270 | -97.40452 | 5039 ft | 246 kts | 344° |
| 2026-05-05 14:32 | 33.11956 | -97.40783 | 4871 ft | 245 kts | 344° |
| 2026-05-05 14:33 | 33.13630 | -97.41111 | 4713 ft | 244 kts | 344° |
| 2026-05-05 14:33 | 33.15297 | -97.41454 | 4572 ft | 241 kts | 344° |
| 2026-05-05 14:33 | 33.16942 | -97.41797 | 4464 ft | 238 kts | 344° |
| 2026-05-05 14:33 | 33.18547 | -97.42137 | 4346 ft | 237 kts | 344° |
| 2026-05-05 14:34 | 33.20157 | -97.42475 | 4241 ft | 234 kts | 347° |
| 2026-05-05 14:34 | 33.21765 | -97.42157 | 4114 ft | 245 kts | 29° |
| 2026-05-05 14:34 | 33.22901 | -97.40670 | 4051 ft | 242 kts | 72° |
| 2026-05-05 14:34 | 33.23008 | -97.38755 | 4010 ft | 225 kts | 115° |
| 2026-05-05 14:35 | 33.22144 | -97.37344 | 4004 ft | 206 kts | 156° |
| 2026-05-05 14:35 | 33.20840 | -97.36743 | 4020 ft | 202 kts | 168° |
| 2026-05-05 14:35 | 33.19495 | -97.36231 | 3999 ft | 203 kts | 169° |
| 2026-05-05 14:35 | 33.18137 | -97.35809 | 4006 ft | 200 kts | 173° |
| 2026-05-05 14:36 | 33.16777 | -97.35491 | 3894 ft | 196 kts | 175° |
| 2026-05-05 14:36 | 33.15478 | -97.35221 | 3668 ft | 188 kts | 175° |
| 2026-05-05 14:36 | 33.14193 | -97.34957 | 3425 ft | 182 kts | 175° |
| 2026-05-05 14:36 | 33.12972 | -97.34706 | 3187 ft | 173 kts | 175° |
| 2026-05-05 14:37 | 33.11860 | -97.34476 | 2952 ft | 155 kts | 175° |
| 2026-05-05 14:37 | 33.10846 | -97.34268 | 2761 ft | 144 kts | 174° |
| 2026-05-05 14:37 | 33.09872 | -97.34071 | 2572 ft | 141 kts | 175° |
| 2026-05-05 14:37 | 33.08908 | -97.33872 | 2421 ft | 138 kts | 174° |
| 2026-05-05 14:38 | 33.07984 | -97.33681 | 2237 ft | 135 kts | 174° |
| 2026-05-05 14:38 | 33.07036 | -97.33488 | 2049 ft | 142 kts | 173° |
| 2026-05-05 14:38 | 33.06054 | -97.33286 | 1849 ft | 144 kts | 173° |
| 2026-05-05 14:38 | 33.05073 | -97.33084 | 1666 ft | 143 kts | 173° |
| 2026-05-05 14:39 | 33.04106 | -97.32884 | 1647 ft | 136 kts | 173° |
| 2026-05-05 14:39 | 33.03187 | -97.32758 | 1465 ft | 134 kts | 178° |
| 2026-05-05 14:39 | 33.02200 | -97.32682 | 1156 ft | 147 kts | 178° |
| 2026-05-05 14:39 | 33.01202 | -97.32504 | 937 ft | 143 kts | 162° |
| 2026-05-05 14:40 | 33.00254 | -97.32285 | 768 ft | 137 kts | 175° |
| 2026-05-05 14:40 | 32.99367 | -97.32105 | 703 ft | 118 kts | 171° |
| 2026-05-05 14:40 | 32.98753 | -97.31988 | 698 ft | 58 kts | 171° |
| 2026-05-05 14:40 | 32.98451 | -97.31929 | 691 ft | 41 kts | 169° |
| 2026-05-05 14:41 | 32.98209 | -97.31875 | 681 ft | 26 kts | 170° |
| 2026-05-05 14:41 | 32.98088 | -97.31913 | 680 ft | 18 kts | 248° |
| 2026-05-05 14:41 | 32.98009 | -97.31965 | 682 ft | 5 kts | 176° |
| 2026-05-05 14:41 | 32.97979 | -97.31970 | 682 ft | 5 kts | 213° |
| 2026-05-05 14:42 | 32.97974 | -97.31977 | 682 ft | 1 kts | 233° |
| 2026-05-05 14:42 | 32.97971 | -97.31994 | 681 ft | 3 kts | 262° |
| 2026-05-05 14:42 | 32.97969 | -97.32035 | 681 ft | 7 kts | 267° |
| 2026-05-05 14:42 | 32.97987 | -97.32071 | 680 ft | 8 kts | 329° |
| 2026-05-05 14:43 | 32.98042 | -97.32085 | 681 ft | 8 kts | 350° |
| 2026-05-05 14:43 | 32.98098 | -97.32097 | 682 ft | 8 kts | 351° |
| 2026-05-05 14:43 | 32.98155 | -97.32107 | 679 ft | 8 kts | 351° |
| 2026-05-05 14:43 | 32.98189 | -97.32114 | 677 ft | 2 kts | 351° |
| 2026-05-05 14:44 | 32.98197 | -97.32116 | 684 ft | 1 kts | 351° |
| 2026-05-05 14:44 | 32.98228 | -97.32122 | 680 ft | 6 kts | 350° |
| 2026-05-05 14:44 | 32.98269 | -97.32131 | 681 ft | 6 kts | 348° |
| 2026-05-05 14:44 | 32.98299 | -97.32166 | 687 ft | 6 kts | 242° |
| 2026-05-05 14:45 | 32.98291 | -97.32185 | 687 ft | 1 kts | 250° |
| 2026-05-05 14:45 | 32.98290 | -97.32194 | 681 ft | 2 kts | 260° |
| 2026-05-05 14:45 | 32.98289 | -97.32203 | 687 ft | 0 kts | 261° |